Relampago, Texas
Current Conditions -  °F | °C
As of 1:55 PM on Friday 19 Dec 2014 (Local Time) from KT65 Reporting Station
Overcast Overcast  
Wind Chill: 17°   Ceiling: 400
Heat Index: 17°   Visibility: 10mi
Dew Point: 15°   Wind: 14mph
Humidity: 87%   Direction: 360°N
Pressure: 29.98"   Gusts: 20mph
Location:  26.1456°N, 97.91°W
Report Text: KT65 191955Z AUTO 36012G17KT 10SM OVC004 17/15 A2998 RMK AO2 T01700149
Loading
Personal Weather Stations






























Interactive Weather Map New forecast layout! Learn more

10-Day Weather Forecast

Advertisements
Track Severe Weather on mobile